sensor_id;sensor_type;location;lat;lon;timestamp;temperature;humidity
20735;DHT22;10528;52.124;5.196;2023-07-31T00:00:15;17.30;99.90
20735;DHT22;10528;52.124;5.196;2023-07-31T00:02:42;17.40;99.90
20735;DHT22;10528;52.124;5.196;2023-07-31T00:05:09;17.40;99.90
20735;DHT22;10528;52.124;5.196;2023-07-31T00:07:36;17.40;99.90
20735;DHT22;10528;52.124;5.196;2023-07-31T00:10:03;17.40;99.90
20735;DHT22;10528;52.124;5.196;2023-07-31T00:12:30;17.40;99.90
20735;DHT22;10528;52.124;5.196;2023-07-31T00:14:57;17.40;99.90
20735;DHT22;10528;52.124;5.196;2023-07-31T00:17:24;17.40;99.90
20735;DHT22;10528;52.124;5.196;2023-07-31T00:19:51;17.40;99.90
20735;DHT22;10528;52.124;5.196;2023-07-31T00:22:18;17.40;99.90
20735;DHT22;10528;52.124;5.196;2023-07-31T00:24:45;17.50;99.90
20735;DHT22;10528;52.124;5.196;2023-07-31T00:27:12;17.50;99.90
20735;DHT22;10528;52.124;5.196;2023-07-31T00:29:39;17.60;99.90
20735;DHT22;10528;52.124;5.196;2023-07-31T00:32:06;17.60;99.90
20735;DHT22;10528;52.124;5.196;2023-07-31T00:34:34;17.70;99.90
20735;DHT22;10528;52.124;5.196;2023-07-31T00:37:02;17.80;99.90
20735;DHT22;10528;52.124;5.196;2023-07-31T00:39:30;17.80;99.90
20735;DHT22;10528;52.124;5.196;2023-07-31T00:41:59;17.80;99.90
20735;DHT22;10528;52.124;5.196;2023-07-31T00:44:26;17.80;99.90
20735;DHT22;10528;52.124;5.196;2023-07-31T00:46:54;17.80;99.90
20735;DHT22;10528;52.124;5.196;2023-07-31T00:49:23;17.70;99.90
20735;DHT22;10528;52.124;5.196;2023-07-31T00:51:50;17.80;99.90
20735;DHT22;10528;52.124;5.196;2023-07-31T00:54:17;17.80;99.90
20735;DHT22;10528;52.124;5.196;2023-07-31T00:56:47;17.80;99.90
20735;DHT22;10528;52.124;5.196;2023-07-31T00:59:15;17.80;99.90
20735;DHT22;10528;52.124;5.196;2023-07-31T01:01:42;17.80;99.90
20735;DHT22;10528;52.124;5.196;2023-07-31T01:04:09;17.90;99.90
20735;DHT22;10528;52.124;5.196;2023-07-31T01:09:42;17.80;99.90
20735;DHT22;10528;52.124;5.196;2023-07-31T01:12:15;17.70;99.90
20735;DHT22;10528;52.124;5.196;2023-07-31T01:15:02;17.60;99.90
20735;DHT22;10528;52.124;5.196;2023-07-31T01:17:33;17.60;99.90
20735;DHT22;10528;52.124;5.196;2023-07-31T01:20:03;17.60;99.90
20735;DHT22;10528;52.124;5.196;2023-07-31T01:28:50;17.70;99.90
20735;DHT22;10528;52.124;5.196;2023-07-31T01:31:24;17.70;99.90
20735;DHT22;10528;52.124;5.196;2023-07-31T01:33:54;17.70;99.90
20735;DHT22;10528;52.124;5.196;2023-07-31T01:36:25;17.80;99.90
20735;DHT22;10528;52.124;5.196;2023-07-31T01:38:52;17.80;99.90
20735;DHT22;10528;52.124;5.196;2023-07-31T01:41:19;17.80;99.90
20735;DHT22;10528;52.124;5.196;2023-07-31T01:43:46;17.70;99.90
20735;DHT22;10528;52.124;5.196;2023-07-31T01:46:13;17.80;99.90
20735;DHT22;10528;52.124;5.196;2023-07-31T01:48:40;17.80;99.90
20735;DHT22;10528;52.124;5.196;2023-07-31T01:51:07;17.70;99.90
20735;DHT22;10528;52.124;5.196;2023-07-31T01:53:35;17.70;99.90
20735;DHT22;10528;52.124;5.196;2023-07-31T01:56:02;17.70;99.90
20735;DHT22;10528;52.124;5.196;2023-07-31T01:58:30;17.80;99.90
20735;DHT22;10528;52.124;5.196;2023-07-31T02:00:56;17.70;99.90
20735;DHT22;10528;52.124;5.196;2023-07-31T02:03:23;17.60;99.90
20735;DHT22;10528;52.124;5.196;2023-07-31T02:05:54;17.70;99.90
20735;DHT22;10528;52.124;5.196;2023-07-31T02:08:21;17.70;99.90
20735;DHT22;10528;52.124;5.196;2023-07-31T02:10:48;17.70;99.90
20735;DHT22;10528;52.124;5.196;2023-07-31T02:13:15;17.70;99.90
20735;DHT22;10528;52.124;5.196;2023-07-31T02:15:42;17.50;99.90
20735;DHT22;10528;52.124;5.196;2023-07-31T02:18:09;17.60;99.90
20735;DHT22;10528;52.124;5.196;2023-07-31T02:20:35;17.60;99.90
20735;DHT22;10528;52.124;5.196;2023-07-31T02:23:02;17.60;99.90
20735;DHT22;10528;52.124;5.196;2023-07-31T02:25:29;17.60;99.90
20735;DHT22;10528;52.124;5.196;2023-07-31T02:27:56;17.60;99.90
20735;DHT22;10528;52.124;5.196;2023-07-31T02:30:23;17.60;99.90
20735;DHT22;10528;52.124;5.196;2023-07-31T02:32:50;17.60;99.90
20735;DHT22;10528;52.124;5.196;2023-07-31T02:35:17;17.60;99.90
20735;DHT22;10528;52.124;5.196;2023-07-31T02:37:45;17.70;99.90
20735;DHT22;10528;52.124;5.196;2023-07-31T02:40:13;17.70;99.90
20735;DHT22;10528;52.124;5.196;2023-07-31T02:42:40;17.70;99.90
20735;DHT22;10528;52.124;5.196;2023-07-31T02:45:07;17.60;99.90
20735;DHT22;10528;52.124;5.196;2023-07-31T02:47:35;17.60;99.90
20735;DHT22;10528;52.124;5.196;2023-07-31T02:50:06;17.70;99.90
20735;DHT22;10528;52.124;5.196;2023-07-31T02:52:34;17.70;99.90
20735;DHT22;10528;52.124;5.196;2023-07-31T02:55:00;17.80;99.90
20735;DHT22;10528;52.124;5.196;2023-07-31T02:57:27;17.80;99.90
20735;DHT22;10528;52.124;5.196;2023-07-31T02:59:54;17.70;99.90
20735;DHT22;10528;52.124;5.196;2023-07-31T03:02:21;17.60;99.90
20735;DHT22;10528;52.124;5.196;2023-07-31T03:04:48;17.70;99.90
20735;DHT22;10528;52.124;5.196;2023-07-31T03:07:15;17.70;99.90
20735;DHT22;10528;52.124;5.196;2023-07-31T03:09:42;17.70;99.90
20735;DHT22;10528;52.124;5.196;2023-07-31T03:12:09;17.80;99.90
20735;DHT22;10528;52.124;5.196;2023-07-31T03:14:36;17.80;99.90
20735;DHT22;10528;52.124;5.196;2023-07-31T03:17:03;17.70;99.90
20735;DHT22;10528;52.124;5.196;2023-07-31T03:19:31;17.70;99.90
20735;DHT22;10528;52.124;5.196;2023-07-31T03:22:01;17.70;99.90
20735;DHT22;10528;52.124;5.196;2023-07-31T03:24:28;17.70;99.90
20735;DHT22;10528;52.124;5.196;2023-07-31T03:26:56;17.70;99.90
20735;DHT22;10528;52.124;5.196;2023-07-31T03:29:23;17.70;99.90
20735;DHT22;10528;52.124;5.196;2023-07-31T03:31:51;17.60;99.90
20735;DHT22;10528;52.124;5.196;2023-07-31T03:34:18;17.50;99.90
20735;DHT22;10528;52.124;5.196;2023-07-31T03:36:45;17.60;99.90
20735;DHT22;10528;52.124;5.196;2023-07-31T03:39:12;17.60;99.90
20735;DHT22;10528;52.124;5.196;2023-07-31T03:41:39;17.70;99.90
20735;DHT22;10528;52.124;5.196;2023-07-31T03:44:06;17.60;99.90
20735;DHT22;10528;52.124;5.196;2023-07-31T03:46:34;17.60;99.90
20735;DHT22;10528;52.124;5.196;2023-07-31T03:49:03;17.60;99.90
20735;DHT22;10528;52.124;5.196;2023-07-31T03:51:30;17.60;99.90
20735;DHT22;10528;52.124;5.196;2023-07-31T03:53:57;17.60;99.90
20735;DHT22;10528;52.124;5.196;2023-07-31T03:56:24;17.60;99.90
20735;DHT22;10528;52.124;5.196;2023-07-31T03:58:51;17.60;99.90
20735;DHT22;10528;52.124;5.196;2023-07-31T04:01:18;17.50;99.90
20735;DHT22;10528;52.124;5.196;2023-07-31T04:03:46;17.50;99.90
20735;DHT22;10528;52.124;5.196;2023-07-31T04:06:13;17.50;99.90
20735;DHT22;10528;52.124;5.196;2023-07-31T04:08:40;17.60;99.90
20735;DHT22;10528;52.124;5.196;2023-07-31T04:11:08;17.60;99.90
20735;DHT22;10528;52.124;5.196;2023-07-31T04:13:35;17.50;99.90
20735;DHT22;10528;52.124;5.196;2023-07-31T04:16:02;17.50;99.90
20735;DHT22;10528;52.124;5.196;2023-07-31T04:18:29;17.50;99.90
20735;DHT22;10528;52.124;5.196;2023-07-31T04:20:58;17.60;99.90
20735;DHT22;10528;52.124;5.196;2023-07-31T04:23:25;17.50;99.90
20735;DHT22;10528;52.124;5.196;2023-07-31T04:25:52;17.50;99.90
20735;DHT22;10528;52.124;5.196;2023-07-31T04:28:19;17.40;99.90
20735;DHT22;10528;52.124;5.196;2023-07-31T04:30:46;17.50;99.90
20735;DHT22;10528;52.124;5.196;2023-07-31T04:33:16;17.50;99.90
20735;DHT22;10528;52.124;5.196;2023-07-31T04:35:51;17.50;99.90
20735;DHT22;10528;52.124;5.196;2023-07-31T04:38:20;17.50;99.90
20735;DHT22;10528;52.124;5.196;2023-07-31T04:40:48;17.40;99.90
20735;DHT22;10528;52.124;5.196;2023-07-31T04:43:15;17.40;99.90
20735;DHT22;10528;52.124;5.196;2023-07-31T04:45:45;17.40;99.90
20735;DHT22;10528;52.124;5.196;2023-07-31T04:48:14;17.30;99.90
20735;DHT22;10528;52.124;5.196;2023-07-31T04:50:41;17.30;99.90
20735;DHT22;10528;52.124;5.196;2023-07-31T04:53:08;17.40;99.90
20735;DHT22;10528;52.124;5.196;2023-07-31T04:55:35;17.20;99.90
20735;DHT22;10528;52.124;5.196;2023-07-31T04:58:02;17.30;99.90
20735;DHT22;10528;52.124;5.196;2023-07-31T05:00:29;17.20;99.90
20735;DHT22;10528;52.124;5.196;2023-07-31T05:02:56;17.20;99.90
20735;DHT22;10528;52.124;5.196;2023-07-31T05:05:24;17.30;99.90
20735;DHT22;10528;52.124;5.196;2023-07-31T05:07:50;17.20;99.90
20735;DHT22;10528;52.124;5.196;2023-07-31T05:10:17;17.30;99.90
20735;DHT22;10528;52.124;5.196;2023-07-31T05:12:44;17.20;99.90
20735;DHT22;10528;52.124;5.196;2023-07-31T05:15:11;17.20;99.90
20735;DHT22;10528;52.124;5.196;2023-07-31T05:17:38;17.20;99.90
20735;DHT22;10528;52.124;5.196;2023-07-31T05:20:06;17.30;99.90
20735;DHT22;10528;52.124;5.196;2023-07-31T05:22:33;17.20;99.90
20735;DHT22;10528;52.124;5.196;2023-07-31T05:25:00;17.20;99.90
20735;DHT22;10528;52.124;5.196;2023-07-31T05:27:27;17.20;99.90
20735;DHT22;10528;52.124;5.196;2023-07-31T05:29:54;17.20;99.90
20735;DHT22;10528;52.124;5.196;2023-07-31T05:32:21;17.20;99.90
20735;DHT22;10528;52.124;5.196;2023-07-31T05:34:51;17.20;99.90
20735;DHT22;10528;52.124;5.196;2023-07-31T05:37:19;17.30;99.90
20735;DHT22;10528;52.124;5.196;2023-07-31T05:39:46;17.20;99.90
20735;DHT22;10528;52.124;5.196;2023-07-31T05:42:13;17.20;99.90
20735;DHT22;10528;52.124;5.196;2023-07-31T05:44:40;17.20;99.90
20735;DHT22;10528;52.124;5.196;2023-07-31T05:47:07;17.20;99.90
20735;DHT22;10528;52.124;5.196;2023-07-31T05:49:34;17.20;99.90
20735;DHT22;10528;52.124;5.196;2023-07-31T05:52:01;17.20;99.90
20735;DHT22;10528;52.124;5.196;2023-07-31T05:54:28;17.20;99.90
20735;DHT22;10528;52.124;5.196;2023-07-31T05:56:55;17.10;99.90
20735;DHT22;10528;52.124;5.196;2023-07-31T05:59:22;17.20;99.90
20735;DHT22;10528;52.124;5.196;2023-07-31T06:01:49;17.20;99.90
20735;DHT22;10528;52.124;5.196;2023-07-31T06:04:16;17.10;99.90
20735;DHT22;10528;52.124;5.196;2023-07-31T06:06:43;17.10;99.90
20735;DHT22;10528;52.124;5.196;2023-07-31T06:09:10;17.20;99.90
20735;DHT22;10528;52.124;5.196;2023-07-31T06:11:38;17.30;99.90
20735;DHT22;10528;52.124;5.196;2023-07-31T06:14:05;17.30;99.90
20735;DHT22;10528;52.124;5.196;2023-07-31T06:16:32;17.20;99.90
20735;DHT22;10528;52.124;5.196;2023-07-31T06:18:59;17.20;99.90
20735;DHT22;10528;52.124;5.196;2023-07-31T06:21:26;17.30;99.90
20735;DHT22;10528;52.124;5.196;2023-07-31T06:23:53;17.30;99.90
20735;DHT22;10528;52.124;5.196;2023-07-31T06:26:20;17.40;99.90
20735;DHT22;10528;52.124;5.196;2023-07-31T06:28:47;17.50;99.90
20735;DHT22;10528;52.124;5.196;2023-07-31T06:31:14;17.40;99.90
20735;DHT22;10528;52.124;5.196;2023-07-31T06:33:41;17.40;99.90
20735;DHT22;10528;52.124;5.196;2023-07-31T06:36:08;17.40;99.90
20735;DHT22;10528;52.124;5.196;2023-07-31T06:38:35;17.40;99.90
20735;DHT22;10528;52.124;5.196;2023-07-31T06:41:03;17.40;99.90
20735;DHT22;10528;52.124;5.196;2023-07-31T06:43:30;17.60;99.90
20735;DHT22;10528;52.124;5.196;2023-07-31T06:45:59;17.50;99.90
20735;DHT22;10528;52.124;5.196;2023-07-31T06:48:31;17.50;99.90
20735;DHT22;10528;52.124;5.196;2023-07-31T06:50:58;17.60;99.90
20735;DHT22;10528;52.124;5.196;2023-07-31T06:53:25;17.60;99.90
20735;DHT22;10528;52.124;5.196;2023-07-31T06:55:52;17.50;99.90
20735;DHT22;10528;52.124;5.196;2023-07-31T06:58:19;17.70;99.90
20735;DHT22;10528;52.124;5.196;2023-07-31T07:00:46;17.70;99.90
20735;DHT22;10528;52.124;5.196;2023-07-31T07:03:19;17.60;99.90
20735;DHT22;10528;52.124;5.196;2023-07-31T07:05:46;17.60;99.90
20735;DHT22;10528;52.124;5.196;2023-07-31T07:08:14;17.70;99.90
20735;DHT22;10528;52.124;5.196;2023-07-31T07:10:41;17.80;99.90
20735;DHT22;10528;52.124;5.196;2023-07-31T07:13:08;17.90;99.90
20735;DHT22;10528;52.124;5.196;2023-07-31T07:15:36;17.90;99.90
20735;DHT22;10528;52.124;5.196;2023-07-31T07:18:03;17.80;99.90
20735;DHT22;10528;52.124;5.196;2023-07-31T07:20:30;17.80;99.90
20735;DHT22;10528;52.124;5.196;2023-07-31T07:22:57;17.80;99.90
20735;DHT22;10528;52.124;5.196;2023-07-31T07:25:24;17.70;99.90
20735;DHT22;10528;52.124;5.196;2023-07-31T07:27:51;17.70;99.90
20735;DHT22;10528;52.124;5.196;2023-07-31T07:30:18;17.70;99.90
20735;DHT22;10528;52.124;5.196;2023-07-31T07:32:46;17.80;99.90
20735;DHT22;10528;52.124;5.196;2023-07-31T07:35:13;17.90;99.90
20735;DHT22;10528;52.124;5.196;2023-07-31T07:37:41;17.80;99.90
20735;DHT22;10528;52.124;5.196;2023-07-31T07:40:08;17.90;99.90
20735;DHT22;10528;52.124;5.196;2023-07-31T07:42:35;18.00;99.90
20735;DHT22;10528;52.124;5.196;2023-07-31T07:45:02;18.00;99.90
20735;DHT22;10528;52.124;5.196;2023-07-31T07:47:29;18.10;99.90
20735;DHT22;10528;52.124;5.196;2023-07-31T07:49:56;18.20;99.90
20735;DHT22;10528;52.124;5.196;2023-07-31T07:52:23;18.20;99.90
20735;DHT22;10528;52.124;5.196;2023-07-31T07:54:50;18.10;99.90
20735;DHT22;10528;52.124;5.196;2023-07-31T07:57:17;18.10;99.90
20735;DHT22;10528;52.124;5.196;2023-07-31T07:59:45;18.10;99.90
20735;DHT22;10528;52.124;5.196;2023-07-31T08:02:12;18.10;99.90
20735;DHT22;10528;52.124;5.196;2023-07-31T08:04:38;18.10;99.90
20735;DHT22;10528;52.124;5.196;2023-07-31T08:07:05;18.20;99.90
20735;DHT22;10528;52.124;5.196;2023-07-31T08:09:32;18.30;99.90
20735;DHT22;10528;52.124;5.196;2023-07-31T08:11:59;18.50;99.90
20735;DHT22;10528;52.124;5.196;2023-07-31T08:14:29;18.30;99.90
20735;DHT22;10528;52.124;5.196;2023-07-31T08:16:59;18.30;99.90
20735;DHT22;10528;52.124;5.196;2023-07-31T08:19:27;18.30;99.90
20735;DHT22;10528;52.124;5.196;2023-07-31T08:21:54;18.40;99.90
20735;DHT22;10528;52.124;5.196;2023-07-31T08:24:24;18.30;99.90
20735;DHT22;10528;52.124;5.196;2023-07-31T08:26:50;18.40;99.90
20735;DHT22;10528;52.124;5.196;2023-07-31T08:29:17;18.30;99.90
20735;DHT22;10528;52.124;5.196;2023-07-31T08:31:44;18.50;99.90
20735;DHT22;10528;52.124;5.196;2023-07-31T08:34:11;18.60;99.90
20735;DHT22;10528;52.124;5.196;2023-07-31T08:36:39;18.80;99.90
20735;DHT22;10528;52.124;5.196;2023-07-31T08:39:06;18.80;99.90
20735;DHT22;10528;52.124;5.196;2023-07-31T08:41:38;18.80;99.90
20735;DHT22;10528;52.124;5.196;2023-07-31T08:44:07;18.70;99.90
20735;DHT22;10528;52.124;5.196;2023-07-31T08:46:34;18.70;99.90
20735;DHT22;10528;52.124;5.196;2023-07-31T08:49:04;18.70;99.90
20735;DHT22;10528;52.124;5.196;2023-07-31T08:51:35;18.80;99.90
20735;DHT22;10528;52.124;5.196;2023-07-31T08:54:03;18.80;99.90
20735;DHT22;10528;52.124;5.196;2023-07-31T08:56:32;18.80;99.90
20735;DHT22;10528;52.124;5.196;2023-07-31T08:59:02;18.70;99.90
20735;DHT22;10528;52.124;5.196;2023-07-31T09:01:35;18.70;99.90
20735;DHT22;10528;52.124;5.196;2023-07-31T09:04:07;18.70;99.90
20735;DHT22;10528;52.124;5.196;2023-07-31T09:06:36;18.70;99.90
20735;DHT22;10528;52.124;5.196;2023-07-31T09:09:05;18.70;99.90
20735;DHT22;10528;52.124;5.196;2023-07-31T09:11:32;18.50;99.90
20735;DHT22;10528;52.124;5.196;2023-07-31T09:14:00;18.60;99.90
20735;DHT22;10528;52.124;5.196;2023-07-31T09:16:34;18.70;99.90
20735;DHT22;10528;52.124;5.196;2023-07-31T09:19:02;19.00;99.90
20735;DHT22;10528;52.124;5.196;2023-07-31T09:21:29;18.90;99.90
20735;DHT22;10528;52.124;5.196;2023-07-31T09:23:57;18.80;99.90
20735;DHT22;10528;52.124;5.196;2023-07-31T09:26:34;18.90;99.90
20735;DHT22;10528;52.124;5.196;2023-07-31T09:29:07;18.80;99.90
20735;DHT22;10528;52.124;5.196;2023-07-31T09:31:46;18.90;99.90
20735;DHT22;10528;52.124;5.196;2023-07-31T09:34:13;19.00;99.90
20735;DHT22;10528;52.124;5.196;2023-07-31T09:36:50;19.10;99.90
20735;DHT22;10528;52.124;5.196;2023-07-31T09:39:19;19.00;99.90
20735;DHT22;10528;52.124;5.196;2023-07-31T09:41:53;19.20;99.90
20735;DHT22;10528;52.124;5.196;2023-07-31T09:44:21;19.10;99.90
20735;DHT22;10528;52.124;5.196;2023-07-31T09:46:49;19.20;99.90
20735;DHT22;10528;52.124;5.196;2023-07-31T09:49:16;19.30;99.90
20735;DHT22;10528;52.124;5.196;2023-07-31T09:51:43;19.30;99.90
20735;DHT22;10528;52.124;5.196;2023-07-31T09:54:14;19.20;99.90
20735;DHT22;10528;52.124;5.196;2023-07-31T09:56:43;19.30;99.90
20735;DHT22;10528;52.124;5.196;2023-07-31T09:59:13;19.30;99.90
20735;DHT22;10528;52.124;5.196;2023-07-31T10:01:49;19.40;99.90
20735;DHT22;10528;52.124;5.196;2023-07-31T10:04:18;19.40;99.90
20735;DHT22;10528;52.124;5.196;2023-07-31T10:06:50;19.40;99.90
20735;DHT22;10528;52.124;5.196;2023-07-31T10:09:20;19.30;99.90
20735;DHT22;10528;52.124;5.196;2023-07-31T10:12:00;19.30;99.90
20735;DHT22;10528;52.124;5.196;2023-07-31T10:14:30;19.40;99.90
20735;DHT22;10528;52.124;5.196;2023-07-31T10:16:58;19.30;99.90
20735;DHT22;10528;52.124;5.196;2023-07-31T10:19:27;19.20;99.90
20735;DHT22;10528;52.124;5.196;2023-07-31T10:21:56;19.20;99.90
20735;DHT22;10528;52.124;5.196;2023-07-31T10:24:25;19.10;99.90
20735;DHT22;10528;52.124;5.196;2023-07-31T10:26:57;19.10;99.90
20735;DHT22;10528;52.124;5.196;2023-07-31T10:29:27;19.10;99.90
20735;DHT22;10528;52.124;5.196;2023-07-31T10:31:57;19.20;99.90
20735;DHT22;10528;52.124;5.196;2023-07-31T10:34:26;19.10;99.90
20735;DHT22;10528;52.124;5.196;2023-07-31T10:37:22;19.10;99.90
20735;DHT22;10528;52.124;5.196;2023-07-31T10:44:58;19.00;99.90
20735;DHT22;10528;52.124;5.196;2023-07-31T10:47:26;19.00;99.90
20735;DHT22;10528;52.124;5.196;2023-07-31T10:50:16;19.00;99.90
20735;DHT22;10528;52.124;5.196;2023-07-31T10:52:52;19.00;99.90
20735;DHT22;10528;52.124;5.196;2023-07-31T10:55:31;19.00;99.90
20735;DHT22;10528;52.124;5.196;2023-07-31T10:58:06;19.10;99.90
20735;DHT22;10528;52.124;5.196;2023-07-31T11:00:34;19.10;99.90
20735;DHT22;10528;52.124;5.196;2023-07-31T11:03:10;19.10;99.90
20735;DHT22;10528;52.124;5.196;2023-07-31T11:08:27;19.10;99.90
20735;DHT22;10528;52.124;5.196;2023-07-31T11:13:32;19.20;99.90
20735;DHT22;10528;52.124;5.196;2023-07-31T11:16:24;19.20;99.90
20735;DHT22;10528;52.124;5.196;2023-07-31T11:18:53;19.10;99.90
20735;DHT22;10528;52.124;5.196;2023-07-31T11:21:24;19.10;99.90
20735;DHT22;10528;52.124;5.196;2023-07-31T11:23:53;19.20;99.90
20735;DHT22;10528;52.124;5.196;2023-07-31T11:26:25;19.20;99.90
20735;DHT22;10528;52.124;5.196;2023-07-31T11:28:54;19.20;99.90
20735;DHT22;10528;52.124;5.196;2023-07-31T11:31:21;19.20;99.90
20735;DHT22;10528;52.124;5.196;2023-07-31T11:33:48;19.20;99.90
20735;DHT22;10528;52.124;5.196;2023-07-31T11:36:17;19.10;99.90
20735;DHT22;10528;52.124;5.196;2023-07-31T11:38:45;19.00;99.90
20735;DHT22;10528;52.124;5.196;2023-07-31T11:41:16;19.10;99.90
20735;DHT22;10528;52.124;5.196;2023-07-31T11:43:48;19.10;99.90
20735;DHT22;10528;52.124;5.196;2023-07-31T11:46:15;19.10;99.90
20735;DHT22;10528;52.124;5.196;2023-07-31T11:48:42;19.10;99.90
20735;DHT22;10528;52.124;5.196;2023-07-31T11:51:12;19.10;99.90
20735;DHT22;10528;52.124;5.196;2023-07-31T11:53:49;19.00;99.90
20735;DHT22;10528;52.124;5.196;2023-07-31T11:56:19;19.00;99.90
20735;DHT22;10528;52.124;5.196;2023-07-31T11:58:52;19.10;99.90
20735;DHT22;10528;52.124;5.196;2023-07-31T12:01:22;19.10;99.90
20735;DHT22;10528;52.124;5.196;2023-07-31T12:03:50;19.10;99.90
20735;DHT22;10528;52.124;5.196;2023-07-31T12:06:18;19.10;99.90
20735;DHT22;10528;52.124;5.196;2023-07-31T12:08:48;19.10;99.90
20735;DHT22;10528;52.124;5.196;2023-07-31T12:11:15;19.00;99.90
20735;DHT22;10528;52.124;5.196;2023-07-31T12:13:44;19.00;99.90
20735;DHT22;10528;52.124;5.196;2023-07-31T12:16:11;19.10;99.90
20735;DHT22;10528;52.124;5.196;2023-07-31T12:18:39;19.00;99.90
20735;DHT22;10528;52.124;5.196;2023-07-31T12:21:08;19.00;99.90
20735;DHT22;10528;52.124;5.196;2023-07-31T12:23:36;19.00;99.90
20735;DHT22;10528;52.124;5.196;2023-07-31T12:26:09;19.00;99.90
20735;DHT22;10528;52.124;5.196;2023-07-31T12:28:47;19.10;99.90
20735;DHT22;10528;52.124;5.196;2023-07-31T12:31:18;19.10;99.90
20735;DHT22;10528;52.124;5.196;2023-07-31T12:33:49;19.20;99.90
20735;DHT22;10528;52.124;5.196;2023-07-31T12:36:22;19.20;99.90
20735;DHT22;10528;52.124;5.196;2023-07-31T12:38:51;19.10;99.90
20735;DHT22;10528;52.124;5.196;2023-07-31T12:41:19;19.10;99.90
20735;DHT22;10528;52.124;5.196;2023-07-31T12:43:46;19.20;99.90
20735;DHT22;10528;52.124;5.196;2023-07-31T12:46:13;19.20;99.90
20735;DHT22;10528;52.124;5.196;2023-07-31T12:48:40;19.30;99.90
20735;DHT22;10528;52.124;5.196;2023-07-31T12:51:08;19.30;99.90
20735;DHT22;10528;52.124;5.196;2023-07-31T12:53:35;19.30;99.90
20735;DHT22;10528;52.124;5.196;2023-07-31T12:56:03;19.40;99.90
20735;DHT22;10528;52.124;5.196;2023-07-31T12:58:30;19.50;99.90
20735;DHT22;10528;52.124;5.196;2023-07-31T13:00:57;19.60;99.90
20735;DHT22;10528;52.124;5.196;2023-07-31T13:03:25;19.70;99.90
20735;DHT22;10528;52.124;5.196;2023-07-31T13:05:52;19.70;99.90
20735;DHT22;10528;52.124;5.196;2023-07-31T13:08:20;19.60;99.90
20735;DHT22;10528;52.124;5.196;2023-07-31T13:10:48;19.70;99.90
20735;DHT22;10528;52.124;5.196;2023-07-31T13:13:17;19.70;99.90
20735;DHT22;10528;52.124;5.196;2023-07-31T13:15:44;19.70;99.90
20735;DHT22;10528;52.124;5.196;2023-07-31T13:18:12;19.80;99.90
20735;DHT22;10528;52.124;5.196;2023-07-31T13:20:40;19.90;99.90
20735;DHT22;10528;52.124;5.196;2023-07-31T13:23:07;19.90;99.90
20735;DHT22;10528;52.124;5.196;2023-07-31T13:25:34;19.70;99.90
20735;DHT22;10528;52.124;5.196;2023-07-31T13:28:01;19.70;99.90
20735;DHT22;10528;52.124;5.196;2023-07-31T13:30:29;19.70;99.90
20735;DHT22;10528;52.124;5.196;2023-07-31T13:32:56;19.70;99.90
20735;DHT22;10528;52.124;5.196;2023-07-31T13:35:23;19.60;99.90
20735;DHT22;10528;52.124;5.196;2023-07-31T13:37:50;19.70;99.90
20735;DHT22;10528;52.124;5.196;2023-07-31T13:40:17;19.70;99.90
20735;DHT22;10528;52.124;5.196;2023-07-31T13:42:44;19.70;99.90
20735;DHT22;10528;52.124;5.196;2023-07-31T13:45:12;19.70;99.90
20735;DHT22;10528;52.124;5.196;2023-07-31T13:47:39;19.70;99.90
20735;DHT22;10528;52.124;5.196;2023-07-31T13:50:06;19.70;99.90
20735;DHT22;10528;52.124;5.196;2023-07-31T13:52:34;19.70;99.90
20735;DHT22;10528;52.124;5.196;2023-07-31T13:55:01;19.70;99.90
20735;DHT22;10528;52.124;5.196;2023-07-31T13:57:27;19.60;99.90
20735;DHT22;10528;52.124;5.196;2023-07-31T13:59:55;19.60;99.90
20735;DHT22;10528;52.124;5.196;2023-07-31T14:02:21;19.50;99.90
20735;DHT22;10528;52.124;5.196;2023-07-31T14:04:48;19.60;99.90
20735;DHT22;10528;52.124;5.196;2023-07-31T14:07:15;19.50;99.90
20735;DHT22;10528;52.124;5.196;2023-07-31T14:09:44;19.50;99.90
20735;DHT22;10528;52.124;5.196;2023-07-31T14:12:11;19.40;99.90
20735;DHT22;10528;52.124;5.196;2023-07-31T14:14:38;19.40;99.90
20735;DHT22;10528;52.124;5.196;2023-07-31T14:17:05;19.40;99.90
20735;DHT22;10528;52.124;5.196;2023-07-31T14:19:32;19.50;99.90
20735;DHT22;10528;52.124;5.196;2023-07-31T14:21:59;19.60;99.90
20735;DHT22;10528;52.124;5.196;2023-07-31T14:24:38;19.50;99.90
20735;DHT22;10528;52.124;5.196;2023-07-31T14:27:05;19.50;99.90
20735;DHT22;10528;52.124;5.196;2023-07-31T14:29:32;19.50;99.90
20735;DHT22;10528;52.124;5.196;2023-07-31T14:31:59;19.50;99.90
20735;DHT22;10528;52.124;5.196;2023-07-31T14:34:27;19.50;99.90
20735;DHT22;10528;52.124;5.196;2023-07-31T14:36:54;19.50;99.90
20735;DHT22;10528;52.124;5.196;2023-07-31T14:39:21;19.50;99.90
20735;DHT22;10528;52.124;5.196;2023-07-31T14:41:48;19.40;99.90
20735;DHT22;10528;52.124;5.196;2023-07-31T14:44:15;19.40;99.90
20735;DHT22;10528;52.124;5.196;2023-07-31T14:46:42;19.40;99.90
20735;DHT22;10528;52.124;5.196;2023-07-31T14:49:09;19.30;99.90
20735;DHT22;10528;52.124;5.196;2023-07-31T14:51:36;19.20;99.90
20735;DHT22;10528;52.124;5.196;2023-07-31T14:54:03;19.20;99.90
20735;DHT22;10528;52.124;5.196;2023-07-31T14:56:30;19.20;99.90
20735;DHT22;10528;52.124;5.196;2023-07-31T14:58:57;19.20;99.90
20735;DHT22;10528;52.124;5.196;2023-07-31T15:01:24;19.30;99.90
20735;DHT22;10528;52.124;5.196;2023-07-31T15:03:52;19.30;99.90
20735;DHT22;10528;52.124;5.196;2023-07-31T15:06:19;19.30;99.90
20735;DHT22;10528;52.124;5.196;2023-07-31T15:08:46;19.30;99.90
20735;DHT22;10528;52.124;5.196;2023-07-31T15:11:13;19.20;99.90
20735;DHT22;10528;52.124;5.196;2023-07-31T15:13:42;19.10;99.90
20735;DHT22;10528;52.124;5.196;2023-07-31T15:16:10;19.20;99.90
20735;DHT22;10528;52.124;5.196;2023-07-31T15:18:37;19.20;99.90
20735;DHT22;10528;52.124;5.196;2023-07-31T15:21:04;19.20;99.90
20735;DHT22;10528;52.124;5.196;2023-07-31T15:23:33;19.20;99.90
20735;DHT22;10528;52.124;5.196;2023-07-31T15:26:00;19.10;99.90
20735;DHT22;10528;52.124;5.196;2023-07-31T15:28:27;19.10;99.90
20735;DHT22;10528;52.124;5.196;2023-07-31T15:30:55;19.20;99.90
20735;DHT22;10528;52.124;5.196;2023-07-31T15:33:22;19.20;99.90
20735;DHT22;10528;52.124;5.196;2023-07-31T15:35:49;19.20;99.90
20735;DHT22;10528;52.124;5.196;2023-07-31T15:38:16;19.10;99.90
20735;DHT22;10528;52.124;5.196;2023-07-31T15:40:43;19.10;99.90
20735;DHT22;10528;52.124;5.196;2023-07-31T15:43:10;19.10;99.90
20735;DHT22;10528;52.124;5.196;2023-07-31T15:45:37;19.10;99.90
20735;DHT22;10528;52.124;5.196;2023-07-31T15:48:04;19.10;99.90
20735;DHT22;10528;52.124;5.196;2023-07-31T15:50:31;19.20;99.90
20735;DHT22;10528;52.124;5.196;2023-07-31T15:52:58;19.10;99.90
20735;DHT22;10528;52.124;5.196;2023-07-31T15:55:25;19.10;99.90